sensor_id;sensor_type;location;lat;lon;timestamp;P1;durP1;ratioP1;P2;durP2;ratioP2
66609;SDS011;53468;48.276;14.416;2023-02-01T00:03:37;6.10;;;2.08;;
66609;SDS011;53468;48.276;14.416;2023-02-01T00:08:39;4.93;;;2.72;;
66609;SDS011;53468;48.276;14.416;2023-02-01T00:13:43;5.97;;;3.20;;
66609;SDS011;53468;48.276;14.416;2023-02-01T00:18:47;9.23;;;4.28;;
66609;SDS011;53468;48.276;14.416;2023-02-01T00:23:50;10.98;;;5.00;;
66609;SDS011;53468;48.276;14.416;2023-02-01T00:28:52;10.10;;;3.55;;
66609;SDS011;53468;48.276;14.416;2023-02-01T00:33:56;5.60;;;2.40;;
66609;SDS011;53468;48.276;14.416;2023-02-01T00:38:58;7.55;;;2.33;;
66609;SDS011;53468;48.276;14.416;2023-02-01T00:44:00;6.45;;;2.42;;
66609;SDS011;53468;48.276;14.416;2023-02-01T00:49:04;5.28;;;2.00;;
66609;SDS011;53468;48.276;14.416;2023-02-01T00:54:08;4.88;;;2.08;;
66609;SDS011;53468;48.276;14.416;2023-02-01T00:59:10;4.70;;;2.88;;
66609;SDS011;53468;48.276;14.416;2023-02-01T01:04:14;7.13;;;2.15;;
66609;SDS011;53468;48.276;14.416;2023-02-01T01:09:16;3.22;;;2.08;;
66609;SDS011;53468;48.276;14.416;2023-02-01T01:14:18;3.78;;;1.88;;
66609;SDS011;53468;48.276;14.416;2023-02-01T01:19:22;5.03;;;2.10;;
66609;SDS011;53468;48.276;14.416;2023-02-01T01:24:24;4.55;;;1.92;;
66609;SDS011;53468;48.276;14.416;2023-02-01T01:29:26;2.97;;;1.70;;
66609;SDS011;53468;48.276;14.416;2023-02-01T01:34:30;4.78;;;1.95;;
66609;SDS011;53468;48.276;14.416;2023-02-01T01:39:33;4.47;;;1.75;;
66609;SDS011;53468;48.276;14.416;2023-02-01T01:44:55;4.22;;;2.47;;
66609;SDS011;53468;48.276;14.416;2023-02-01T01:50:01;3.13;;;1.63;;
66609;SDS011;53468;48.276;14.416;2023-02-01T01:55:05;5.70;;;2.10;;
66609;SDS011;53468;48.276;14.416;2023-02-01T02:00:09;4.07;;;1.67;;
66609;SDS011;53468;48.276;14.416;2023-02-01T02:05:15;2.88;;;1.63;;
66609;SDS011;53468;48.276;14.416;2023-02-01T02:10:19;4.13;;;1.70;;
66609;SDS011;53468;48.276;14.416;2023-02-01T02:15:42;2.85;;;1.42;;
66609;SDS011;53468;48.276;14.416;2023-02-01T02:31:53;3.17;;;1.70;;
66609;SDS011;53468;48.276;14.416;2023-02-01T02:37:08;3.35;;;1.67;;
66609;SDS011;53468;48.276;14.416;2023-02-01T02:42:17;3.50;;;1.77;;
66609;SDS011;53468;48.276;14.416;2023-02-01T02:47:44;2.60;;;1.50;;
66609;SDS011;53468;48.276;14.416;2023-02-01T02:52:54;4.57;;;1.40;;
66609;SDS011;53468;48.276;14.416;2023-02-01T02:58:18;3.78;;;1.38;;
66609;SDS011;53468;48.276;14.416;2023-02-01T03:03:40;2.90;;;1.27;;
66609;SDS011;53468;48.276;14.416;2023-02-01T03:09:01;4.15;;;2.17;;
66609;SDS011;53468;48.276;14.416;2023-02-01T03:14:11;4.43;;;1.85;;
66609;SDS011;53468;48.276;14.416;2023-02-01T03:19:16;5.75;;;2.17;;
66609;SDS011;53468;48.276;14.416;2023-02-01T03:24:25;3.38;;;1.67;;
66609;SDS011;53468;48.276;14.416;2023-02-01T03:29:36;5.55;;;2.03;;
66609;SDS011;53468;48.276;14.416;2023-02-01T03:34:42;4.05;;;2.15;;
66609;SDS011;53468;48.276;14.416;2023-02-01T03:39:46;4.65;;;1.80;;
66609;SDS011;53468;48.276;14.416;2023-02-01T03:44:54;5.45;;;1.85;;
66609;SDS011;53468;48.276;14.416;2023-02-01T03:50:04;5.30;;;2.17;;
66609;SDS011;53468;48.276;14.416;2023-02-01T03:55:09;3.90;;;2.03;;
66609;SDS011;53468;48.276;14.416;2023-02-01T04:00:15;2.50;;;1.58;;
66609;SDS011;53468;48.276;14.416;2023-02-01T04:05:20;3.72;;;2.03;;
66609;SDS011;53468;48.276;14.416;2023-02-01T04:10:24;3.45;;;1.60;;
66609;SDS011;53468;48.276;14.416;2023-02-01T04:15:26;3.22;;;1.90;;
66609;SDS011;53468;48.276;14.416;2023-02-01T04:20:28;2.67;;;1.70;;
66609;SDS011;53468;48.276;14.416;2023-02-01T04:25:32;3.40;;;1.67;;
66609;SDS011;53468;48.276;14.416;2023-02-01T04:30:34;4.63;;;1.63;;
66609;SDS011;53468;48.276;14.416;2023-02-01T04:35:37;5.75;;;1.63;;
66609;SDS011;53468;48.276;14.416;2023-02-01T04:40:40;3.47;;;1.73;;
66609;SDS011;53468;48.276;14.416;2023-02-01T04:45:46;2.67;;;1.40;;
66609;SDS011;53468;48.276;14.416;2023-02-01T04:50:48;3.92;;;1.70;;
66609;SDS011;53468;48.276;14.416;2023-02-01T04:55:52;4.63;;;1.52;;
66609;SDS011;53468;48.276;14.416;2023-02-01T05:00:54;6.53;;;1.98;;
66609;SDS011;53468;48.276;14.416;2023-02-01T05:05:56;3.08;;;1.55;;
66609;SDS011;53468;48.276;14.416;2023-02-01T05:11:00;3.85;;;2.30;;
66609;SDS011;53468;48.276;14.416;2023-02-01T05:16:03;7.13;;;1.65;;
66609;SDS011;53468;48.276;14.416;2023-02-01T05:21:06;3.28;;;1.90;;
66609;SDS011;53468;48.276;14.416;2023-02-01T05:26:11;6.28;;;1.88;;
66609;SDS011;53468;48.276;14.416;2023-02-01T05:31:13;3.92;;;2.17;;
66609;SDS011;53468;48.276;14.416;2023-02-01T05:36:15;4.28;;;1.92;;
66609;SDS011;53468;48.276;14.416;2023-02-01T05:41:18;3.45;;;1.65;;
66609;SDS011;53468;48.276;14.416;2023-02-01T05:46:21;3.70;;;2.00;;
66609;SDS011;53468;48.276;14.416;2023-02-01T05:51:23;4.63;;;2.15;;
66609;SDS011;53468;48.276;14.416;2023-02-01T05:56:26;4.25;;;1.83;;
66609;SDS011;53468;48.276;14.416;2023-02-01T06:01:28;3.60;;;2.10;;
66609;SDS011;53468;48.276;14.416;2023-02-01T06:06:30;5.53;;;2.25;;
66609;SDS011;53468;48.276;14.416;2023-02-01T06:11:34;4.05;;;1.95;;
66609;SDS011;53468;48.276;14.416;2023-02-01T06:16:36;4.00;;;2.25;;
66609;SDS011;53468;48.276;14.416;2023-02-01T06:21:38;4.57;;;2.25;;
66609;SDS011;53468;48.276;14.416;2023-02-01T06:26:42;6.43;;;2.55;;
66609;SDS011;53468;48.276;14.416;2023-02-01T06:31:44;10.32;;;3.83;;
66609;SDS011;53468;48.276;14.416;2023-02-01T06:36:46;5.55;;;3.05;;
66609;SDS011;53468;48.276;14.416;2023-02-01T06:41:49;6.93;;;3.53;;
66609;SDS011;53468;48.276;14.416;2023-02-01T06:46:52;9.93;;;4.07;;
66609;SDS011;53468;48.276;14.416;2023-02-01T06:51:54;11.55;;;3.90;;
66609;SDS011;53468;48.276;14.416;2023-02-01T06:56:58;5.95;;;3.05;;
66609;SDS011;53468;48.276;14.416;2023-02-01T07:02:00;6.78;;;3.55;;
66609;SDS011;53468;48.276;14.416;2023-02-01T07:07:02;5.32;;;2.72;;
66609;SDS011;53468;48.276;14.416;2023-02-01T07:12:07;4.80;;;2.35;;
66609;SDS011;53468;48.276;14.416;2023-02-01T07:17:09;4.78;;;2.70;;
66609;SDS011;53468;48.276;14.416;2023-02-01T07:22:11;3.72;;;2.20;;
66609;SDS011;53468;48.276;14.416;2023-02-01T07:27:15;6.95;;;3.80;;
66609;SDS011;53468;48.276;14.416;2023-02-01T07:32:17;5.32;;;2.92;;
66609;SDS011;53468;48.276;14.416;2023-02-01T07:37:19;4.35;;;2.83;;
66609;SDS011;53468;48.276;14.416;2023-02-01T07:42:22;4.50;;;2.65;;
66609;SDS011;53468;48.276;14.416;2023-02-01T07:47:25;7.45;;;2.42;;
66609;SDS011;53468;48.276;14.416;2023-02-01T07:52:28;6.82;;;2.22;;
66609;SDS011;53468;48.276;14.416;2023-02-01T07:57:32;5.10;;;2.28;;
66609;SDS011;53468;48.276;14.416;2023-02-01T08:02:34;3.28;;;1.80;;
66609;SDS011;53468;48.276;14.416;2023-02-01T08:07:36;4.55;;;2.20;;
66609;SDS011;53468;48.276;14.416;2023-02-01T08:12:40;4.38;;;2.05;;
66609;SDS011;53468;48.276;14.416;2023-02-01T08:17:45;3.22;;;1.80;;
66609;SDS011;53468;48.276;14.416;2023-02-01T08:22:48;6.18;;;2.17;;
66609;SDS011;53468;48.276;14.416;2023-02-01T08:27:52;6.25;;;2.38;;
66609;SDS011;53468;48.276;14.416;2023-02-01T08:32:55;4.00;;;2.05;;
66609;SDS011;53468;48.276;14.416;2023-02-01T08:37:57;4.45;;;2.47;;
66609;SDS011;53468;48.276;14.416;2023-02-01T08:43:01;4.13;;;1.83;;
66609;SDS011;53468;48.276;14.416;2023-02-01T08:48:03;4.90;;;2.15;;
66609;SDS011;53468;48.276;14.416;2023-02-01T08:53:07;4.13;;;2.10;;
66609;SDS011;53468;48.276;14.416;2023-02-01T08:58:10;4.65;;;3.13;;
66609;SDS011;53468;48.276;14.416;2023-02-01T09:03:13;6.40;;;3.15;;
66609;SDS011;53468;48.276;14.416;2023-02-01T09:08:16;5.60;;;2.97;;
66609;SDS011;53468;48.276;14.416;2023-02-01T09:13:21;7.88;;;4.22;;
66609;SDS011;53468;48.276;14.416;2023-02-01T09:18:24;13.95;;;3.78;;
66609;SDS011;53468;48.276;14.416;2023-02-01T09:23:26;9.60;;;4.28;;
66609;SDS011;53468;48.276;14.416;2023-02-01T09:28:29;8.98;;;4.40;;
66609;SDS011;53468;48.276;14.416;2023-02-01T09:33:32;8.30;;;3.30;;
66609;SDS011;53468;48.276;14.416;2023-02-01T09:38:34;7.90;;;3.15;;
66609;SDS011;53468;48.276;14.416;2023-02-01T09:43:39;7.38;;;2.97;;
66609;SDS011;53468;48.276;14.416;2023-02-01T09:48:52;6.38;;;3.28;;
66609;SDS011;53468;48.276;14.416;2023-02-01T09:53:58;10.38;;;2.70;;
66609;SDS011;53468;48.276;14.416;2023-02-01T09:59:08;6.85;;;3.53;;
66609;SDS011;53468;48.276;14.416;2023-02-01T10:04:22;9.07;;;3.47;;
66609;SDS011;53468;48.276;14.416;2023-02-01T10:09:31;7.65;;;2.70;;
66609;SDS011;53468;48.276;14.416;2023-02-01T10:14:49;6.10;;;2.70;;
66609;SDS011;53468;48.276;14.416;2023-02-01T10:20:03;12.25;;;5.68;;
66609;SDS011;53468;48.276;14.416;2023-02-01T10:25:14;9.13;;;4.53;;
66609;SDS011;53468;48.276;14.416;2023-02-01T10:30:25;10.48;;;3.08;;
66609;SDS011;53468;48.276;14.416;2023-02-01T10:35:32;8.98;;;3.00;;
66609;SDS011;53468;48.276;14.416;2023-02-01T10:40:36;8.30;;;2.67;;
66609;SDS011;53468;48.276;14.416;2023-02-01T10:45:40;6.65;;;3.83;;
66609;SDS011;53468;48.276;14.416;2023-02-01T10:50:44;5.75;;;3.15;;
66609;SDS011;53468;48.276;14.416;2023-02-01T10:55:53;5.97;;;2.63;;
66609;SDS011;53468;48.276;14.416;2023-02-01T11:00:58;8.43;;;2.95;;
66609;SDS011;53468;48.276;14.416;2023-02-01T11:06:04;6.93;;;3.13;;
66609;SDS011;53468;48.276;14.416;2023-02-01T11:11:14;5.78;;;3.05;;
66609;SDS011;53468;48.276;14.416;2023-02-01T11:16:18;5.70;;;2.75;;
66609;SDS011;53468;48.276;14.416;2023-02-01T11:21:20;6.30;;;3.05;;
66609;SDS011;53468;48.276;14.416;2023-02-01T11:26:23;9.65;;;2.50;;
66609;SDS011;53468;48.276;14.416;2023-02-01T11:31:28;9.07;;;3.88;;
66609;SDS011;53468;48.276;14.416;2023-02-01T11:36:31;8.38;;;3.78;;
66609;SDS011;53468;48.276;14.416;2023-02-01T11:41:34;8.38;;;3.50;;
66609;SDS011;53468;48.276;14.416;2023-02-01T11:46:44;7.18;;;3.30;;
66609;SDS011;53468;48.276;14.416;2023-02-01T11:51:49;6.78;;;2.80;;
66609;SDS011;53468;48.276;14.416;2023-02-01T11:57:02;7.22;;;2.97;;
66609;SDS011;53468;48.276;14.416;2023-02-01T12:02:22;8.20;;;4.25;;
66609;SDS011;53468;48.276;14.416;2023-02-01T12:07:44;8.65;;;3.55;;
66609;SDS011;53468;48.276;14.416;2023-02-01T12:12:59;5.60;;;2.88;;
66609;SDS011;53468;48.276;14.416;2023-02-01T12:23:50;7.95;;;3.08;;
66609;SDS011;53468;48.276;14.416;2023-02-01T12:29:25;8.50;;;2.55;;
66609;SDS011;53468;48.276;14.416;2023-02-01T12:34:41;5.75;;;3.00;;
66609;SDS011;53468;48.276;14.416;2023-02-01T12:39:56;5.68;;;2.63;;
66609;SDS011;53468;48.276;14.416;2023-02-01T12:45:10;9.77;;;3.88;;
66609;SDS011;53468;48.276;14.416;2023-02-01T12:50:18;9.02;;;4.82;;
66609;SDS011;53468;48.276;14.416;2023-02-01T12:55:27;10.98;;;5.40;;
66609;SDS011;53468;48.276;14.416;2023-02-01T13:00:40;10.85;;;5.80;;
66609;SDS011;53468;48.276;14.416;2023-02-01T13:05:50;5.82;;;3.10;;
66609;SDS011;53468;48.276;14.416;2023-02-01T13:10:58;7.30;;;3.30;;
66609;SDS011;53468;48.276;14.416;2023-02-01T13:16:06;7.82;;;3.17;;
66609;SDS011;53468;48.276;14.416;2023-02-01T13:21:17;4.50;;;1.97;;
66609;SDS011;53468;48.276;14.416;2023-02-01T13:26:22;12.10;;;2.83;;
66609;SDS011;53468;48.276;14.416;2023-02-01T13:31:32;4.25;;;1.48;;
66609;SDS011;53468;48.276;14.416;2023-02-01T13:37:00;4.30;;;1.38;;
66609;SDS011;53468;48.276;14.416;2023-02-01T13:42:15;1.25;;;0.75;;
66609;SDS011;53468;48.276;14.416;2023-02-01T13:47:22;1.63;;;0.95;;
66609;SDS011;53468;48.276;14.416;2023-02-01T13:52:31;4.03;;;1.20;;
66609;SDS011;53468;48.276;14.416;2023-02-01T13:57:39;6.53;;;2.00;;
66609;SDS011;53468;48.276;14.416;2023-02-01T14:02:48;3.60;;;1.48;;
66609;SDS011;53468;48.276;14.416;2023-02-01T14:08:10;9.15;;;2.95;;
66609;SDS011;53468;48.276;14.416;2023-02-01T14:13:21;8.85;;;3.33;;
66609;SDS011;53468;48.276;14.416;2023-02-01T14:23:56;7.97;;;4.45;;
66609;SDS011;53468;48.276;14.416;2023-02-01T14:29:02;10.18;;;4.50;;
66609;SDS011;53468;48.276;14.416;2023-02-01T14:34:16;17.50;;;7.90;;
66609;SDS011;53468;48.276;14.416;2023-02-01T14:39:29;19.27;;;5.50;;
66609;SDS011;53468;48.276;14.416;2023-02-01T14:44:36;8.15;;;4.68;;
66609;SDS011;53468;48.276;14.416;2023-02-01T14:49:39;7.20;;;3.85;;
66609;SDS011;53468;48.276;14.416;2023-02-01T14:59:59;9.13;;;4.43;;
66609;SDS011;53468;48.276;14.416;2023-02-01T15:05:16;10.05;;;4.40;;
66609;SDS011;53468;48.276;14.416;2023-02-01T15:10:28;6.63;;;2.97;;
66609;SDS011;53468;48.276;14.416;2023-02-01T15:15:34;9.27;;;4.53;;
66609;SDS011;53468;48.276;14.416;2023-02-01T15:20:37;7.57;;;4.43;;
66609;SDS011;53468;48.276;14.416;2023-02-01T15:25:40;6.45;;;3.65;;
66609;SDS011;53468;48.276;14.416;2023-02-01T15:30:52;7.68;;;3.63;;
66609;SDS011;53468;48.276;14.416;2023-02-01T15:36:07;7.03;;;2.40;;
66609;SDS011;53468;48.276;14.416;2023-02-01T15:41:14;6.15;;;2.40;;
66609;SDS011;53468;48.276;14.416;2023-02-01T15:46:18;4.38;;;1.92;;
66609;SDS011;53468;48.276;14.416;2023-02-01T15:51:36;4.15;;;1.92;;
66609;SDS011;53468;48.276;14.416;2023-02-01T15:56:39;5.50;;;2.35;;
66609;SDS011;53468;48.276;14.416;2023-02-01T16:01:42;5.03;;;1.55;;
66609;SDS011;53468;48.276;14.416;2023-02-01T16:06:45;9.88;;;3.42;;
66609;SDS011;53468;48.276;14.416;2023-02-01T16:11:56;9.93;;;3.08;;
66609;SDS011;53468;48.276;14.416;2023-02-01T16:17:00;6.38;;;2.97;;
66609;SDS011;53468;48.276;14.416;2023-02-01T16:22:02;9.50;;;3.20;;
66609;SDS011;53468;48.276;14.416;2023-02-01T16:27:05;8.00;;;3.40;;
66609;SDS011;53468;48.276;14.416;2023-02-01T16:32:10;8.95;;;2.92;;
66609;SDS011;53468;48.276;14.416;2023-02-01T16:37:18;11.38;;;3.88;;
66609;SDS011;53468;48.276;14.416;2023-02-01T16:42:23;15.90;;;4.55;;
66609;SDS011;53468;48.276;14.416;2023-02-01T16:47:25;10.05;;;4.10;;
66609;SDS011;53468;48.276;14.416;2023-02-01T16:52:27;6.88;;;3.08;;
66609;SDS011;53468;48.276;14.416;2023-02-01T16:57:30;9.85;;;3.67;;
66609;SDS011;53468;48.276;14.416;2023-02-01T17:02:33;9.88;;;3.40;;
66609;SDS011;53468;48.276;14.416;2023-02-01T17:07:35;6.93;;;3.10;;
66609;SDS011;53468;48.276;14.416;2023-02-01T17:12:40;11.40;;;3.65;;
66609;SDS011;53468;48.276;14.416;2023-02-01T17:17:42;6.03;;;2.20;;
66609;SDS011;53468;48.276;14.416;2023-02-01T17:22:44;6.75;;;2.70;;
66609;SDS011;53468;48.276;14.416;2023-02-01T17:27:48;7.57;;;2.20;;
66609;SDS011;53468;48.276;14.416;2023-02-01T17:32:50;5.47;;;1.38;;
66609;SDS011;53468;48.276;14.416;2023-02-01T17:37:52;4.60;;;1.52;;
66609;SDS011;53468;48.276;14.416;2023-02-01T17:42:57;6.90;;;2.15;;
66609;SDS011;53468;48.276;14.416;2023-02-01T17:47:59;5.15;;;2.17;;
66609;SDS011;53468;48.276;14.416;2023-02-01T17:53:01;7.65;;;2.50;;
66609;SDS011;53468;48.276;14.416;2023-02-01T17:58:07;10.25;;;3.17;;
66609;SDS011;53468;48.276;14.416;2023-02-01T18:03:16;7.00;;;2.28;;
66609;SDS011;53468;48.276;14.416;2023-02-01T18:08:25;5.90;;;2.63;;
66609;SDS011;53468;48.276;14.416;2023-02-01T18:13:30;6.95;;;1.95;;
66609;SDS011;53468;48.276;14.416;2023-02-01T18:18:32;4.05;;;1.80;;
66609;SDS011;53468;48.276;14.416;2023-02-01T18:23:34;3.97;;;1.80;;
66609;SDS011;53468;48.276;14.416;2023-02-01T18:28:38;9.60;;;3.67;;
66609;SDS011;53468;48.276;14.416;2023-02-01T18:33:41;7.20;;;1.77;;
66609;SDS011;53468;48.276;14.416;2023-02-01T18:38:43;7.25;;;1.95;;
66609;SDS011;53468;48.276;14.416;2023-02-01T18:43:48;10.48;;;2.67;;
66609;SDS011;53468;48.276;14.416;2023-02-01T18:48:51;8.70;;;2.28;;
66609;SDS011;53468;48.276;14.416;2023-02-01T18:53:53;6.88;;;2.03;;
66609;SDS011;53468;48.276;14.416;2023-02-01T18:58:57;3.58;;;1.10;;
66609;SDS011;53468;48.276;14.416;2023-02-01T19:03:59;10.00;;;1.90;;
66609;SDS011;53468;48.276;14.416;2023-02-01T19:09:01;11.02;;;1.95;;
66609;SDS011;53468;48.276;14.416;2023-02-01T19:14:06;3.80;;;1.63;;
66609;SDS011;53468;48.276;14.416;2023-02-01T19:19:08;6.25;;;1.65;;
66609;SDS011;53468;48.276;14.416;2023-02-01T19:24:10;4.47;;;1.67;;
66609;SDS011;53468;48.276;14.416;2023-02-01T19:29:13;6.07;;;1.90;;
66609;SDS011;53468;48.276;14.416;2023-02-01T19:34:16;8.13;;;2.83;;
66609;SDS011;53468;48.276;14.416;2023-02-01T19:39:18;6.28;;;1.65;;
66609;SDS011;53468;48.276;14.416;2023-02-01T19:44:22;4.53;;;1.70;;
66609;SDS011;53468;48.276;14.416;2023-02-01T19:49:25;7.40;;;2.55;;
66609;SDS011;53468;48.276;14.416;2023-02-01T19:54:27;14.00;;;5.97;;
66609;SDS011;53468;48.276;14.416;2023-02-01T19:59:31;8.95;;;3.15;;
66609;SDS011;53468;48.276;14.416;2023-02-01T20:04:33;8.35;;;2.78;;
66609;SDS011;53468;48.276;14.416;2023-02-01T20:09:35;7.05;;;3.03;;
66609;SDS011;53468;48.276;14.416;2023-02-01T20:14:39;4.88;;;2.78;;
66609;SDS011;53468;48.276;14.416;2023-02-01T20:19:41;4.88;;;1.73;;
66609;SDS011;53468;48.276;14.416;2023-02-01T20:24:43;4.88;;;1.95;;
66609;SDS011;53468;48.276;14.416;2023-02-01T20:29:46;9.38;;;2.42;;
66609;SDS011;53468;48.276;14.416;2023-02-01T20:34:49;4.90;;;1.85;;
66609;SDS011;53468;48.276;14.416;2023-02-01T20:39:52;5.68;;;2.00;;
66609;SDS011;53468;48.276;14.416;2023-02-01T20:44:56;6.13;;;1.83;;
66609;SDS011;53468;48.276;14.416;2023-02-01T20:49:59;2.83;;;1.27;;
66609;SDS011;53468;48.276;14.416;2023-02-01T20:55:02;3.80;;;1.50;;
66609;SDS011;53468;48.276;14.416;2023-02-01T21:00:06;4.43;;;1.42;;
66609;SDS011;53468;48.276;14.416;2023-02-01T21:05:10;7.68;;;1.85;;
66609;SDS011;53468;48.276;14.416;2023-02-01T21:10:12;6.00;;;1.73;;
66609;SDS011;53468;48.276;14.416;2023-02-01T21:15:15;6.40;;;1.95;;
66609;SDS011;53468;48.276;14.416;2023-02-01T21:20:18;7.28;;;2.20;;
66609;SDS011;53468;48.276;14.416;2023-02-01T21:25:20;8.63;;;2.40;;
66609;SDS011;53468;48.276;14.416;2023-02-01T21:30:24;5.90;;;2.17;;
66609;SDS011;53468;48.276;14.416;2023-02-01T21:35:26;4.20;;;1.90;;
66609;SDS011;53468;48.276;14.416;2023-02-01T21:40:29;6.07;;;2.20;;
66609;SDS011;53468;48.276;14.416;2023-02-01T21:45:32;6.78;;;1.90;;
66609;SDS011;53468;48.276;14.416;2023-02-01T21:50:34;6.25;;;2.90;;
66609;SDS011;53468;48.276;14.416;2023-02-01T21:55:37;7.20;;;2.17;;
66609;SDS011;53468;48.276;14.416;2023-02-01T22:00:41;9.30;;;2.70;;
66609;SDS011;53468;48.276;14.416;2023-02-01T22:05:47;17.52;;;2.58;;
66609;SDS011;53468;48.276;14.416;2023-02-01T22:10:50;9.05;;;2.50;;
66609;SDS011;53468;48.276;14.416;2023-02-01T22:15:53;4.85;;;1.85;;
66609;SDS011;53468;48.276;14.416;2023-02-01T22:20:59;8.23;;;1.73;;
66609;SDS011;53468;48.276;14.416;2023-02-01T22:26:03;6.20;;;2.10;;
66609;SDS011;53468;48.276;14.416;2023-02-01T22:31:09;7.15;;;2.80;;
66609;SDS011;53468;48.276;14.416;2023-02-01T22:36:11;7.28;;;2.50;;
66609;SDS011;53468;48.276;14.416;2023-02-01T22:41:16;7.57;;;1.73;;
66609;SDS011;53468;48.276;14.416;2023-02-01T22:46:20;6.50;;;2.40;;
66609;SDS011;53468;48.276;14.416;2023-02-01T22:51:26;6.10;;;2.10;;
66609;SDS011;53468;48.276;14.416;2023-02-01T22:56:30;6.95;;;1.60;;
66609;SDS011;53468;48.276;14.416;2023-02-01T23:01:35;5.15;;;1.88;;
66609;SDS011;53468;48.276;14.416;2023-02-01T23:06:37;5.28;;;1.23;;
66609;SDS011;53468;48.276;14.416;2023-02-01T23:11:39;8.85;;;3.78;;
66609;SDS011;53468;48.276;14.416;2023-02-01T23:16:43;5.38;;;2.22;;
66609;SDS011;53468;48.276;14.416;2023-02-01T23:21:47;8.75;;;2.28;;
66609;SDS011;53468;48.276;14.416;2023-02-01T23:26:49;7.65;;;1.92;;
66609;SDS011;53468;48.276;14.416;2023-02-01T23:31:52;3.72;;;2.13;;
66609;SDS011;53468;48.276;14.416;2023-02-01T23:36:54;10.23;;;2.40;;
66609;SDS011;53468;48.276;14.416;2023-02-01T23:41:56;7.05;;;2.45;;
66609;SDS011;53468;48.276;14.416;2023-02-01T23:47:00;6.82;;;1.88;;
66609;SDS011;53468;48.276;14.416;2023-02-01T23:52:02;7.30;;;2.30;;
66609;SDS011;53468;48.276;14.416;2023-02-01T23:57:04;5.35;;;2.30;;
